Time;durP1;ratioP1;P1;durP2;ratioP2;P2;SDS_P1;SDS_P2;PMS_P1;PMS_P2;Temp;Humidity;BMP_temperature;BMP_pressure;BME280_temperature;BME280_humidity;BME280_pressure;Samples;Min_cycle;Max_cycle;Signal;HPM_P1;HPM_P2
2020/12/10 00:00:38;;;;;;;32.00;14.47;;;;;;;-5.07;70.16;100816.70;1671094;85;21220;-65
2020/12/10 00:03:05;;;;;;;24.17;12.10;;;;;;;-5.17;70.33;100821.84;1673856;85;22331;-63
2020/12/10 00:05:33;;;;;;;24.43;16.03;;;;;;;-5.30;70.57;100818.53;1672897;85;21395;-64
2020/12/10 00:08:02;;;;;;;26.03;13.83;;;;;;;-5.34;70.82;100813.19;1683232;83;21156;-66
2020/12/10 00:10:29;;;;;;;16.80;10.40;;;;;;;-5.37;71.06;100816.06;1665356;84;21108;-63
2020/12/10 00:12:58;;;;;;;26.87;15.57;;;;;;;-5.34;71.15;100807.94;1676890;83;21650;-68
2020/12/10 00:15:26;;;;;;;27.60;14.73;;;;;;;-5.39;71.15;100798.29;1688712;83;21614;-64
2020/12/10 00:17:53;;;;;;;22.77;15.20;;;;;;;-5.41;71.26;100791.01;1683769;84;21696;-64
2020/12/10 00:20:21;;;;;;;24.73;13.93;;;;;;;-5.45;71.42;100786.97;1674821;84;21233;-65
2020/12/10 00:22:49;;;;;;;21.13;14.40;;;;;;;-5.48;71.54;100790.68;1659247;85;21134;-66
2020/12/10 00:25:17;;;;;;;16.90;10.40;;;;;;;-5.49;71.56;100785.55;1632765;86;21276;-64
2020/12/10 00:27:44;;;;;;;18.80;11.60;;;;;;;-5.59;71.84;100777.58;1635865;87;21121;-64
2020/12/10 00:30:12;;;;;;;21.93;12.73;;;;;;;-5.62;72.02;100780.91;1687198;83;21231;-65
2020/12/10 00:32:40;;;;;;;22.53;13.90;;;;;;;-5.66;72.22;100781.64;1674878;84;21069;-67
2020/12/10 00:35:08;;;;;;;23.70;12.57;;;;;;;-5.74;72.29;100773.52;1682263;84;21601;-67
2020/12/10 00:37:36;;;;;;;19.97;10.97;;;;;;;-5.73;72.48;100782.58;1696160;83;21703;-66
2020/12/10 00:40:06;;;;;;;17.77;11.77;;;;;;;-5.76;72.48;100774.97;1684667;84;21222;-71
2020/12/10 00:42:35;;;;;;;17.63;9.83;;;;;;;-5.75;72.64;100777.92;1673134;85;21560;-67
2020/12/10 00:45:03;;;;;;;24.40;15.03;;;;;;;-5.69;72.66;100775.78;1673389;85;21759;-67
2020/12/10 00:47:31;;;;;;;23.03;11.47;;;;;;;-5.68;72.59;100773.05;1668345;85;21215;-64
2020/12/10 00:50:00;;;;;;;24.47;15.23;;;;;;;-5.67;72.47;100770.80;1668658;85;21652;-63
2020/12/10 00:52:29;;;;;;;20.77;12.80;;;;;;;-5.74;72.59;100767.81;1665237;85;21197;-62
2020/12/10 00:54:59;;;;;;;15.57;8.47;;;;;;;-5.74;72.58;100767.81;1669286;85;21415;-63
2020/12/10 00:57:29;;;;;;;18.30;10.23;;;;;;;-5.80;72.61;100760.89;1672483;85;21200;-63
2020/12/10 00:59:57;;;;;;;24.23;13.10;;;;;;;-5.86;72.77;100758.77;1675261;85;21409;-63
2020/12/10 01:02:25;;;;;;;18.93;10.83;;;;;;;-5.89;72.95;100758.55;1670024;85;21184;-66
2020/12/10 01:04:53;;;;;;;18.20;12.07;;;;;;;-5.84;73.03;100758.16;1664896;85;21199;-66
2020/12/10 01:07:20;;;;;;;23.03;10.73;;;;;;;-5.85;73.03;100748.16;1665471;85;21610;-63
2020/12/10 01:09:48;;;;;;;20.43;12.33;;;;;;;-5.82;73.02;100742.69;1675140;84;21680;-61
2020/12/10 01:12:16;;;;;;;22.57;11.10;;;;;;;-5.75;72.99;100750.42;1679377;83;21189;-65
2020/12/10 01:14:43;;;;;;;17.97;10.57;;;;;;;-5.75;72.74;100745.17;1676741;85;21117;-64
2020/12/10 01:17:11;;;;;;;17.03;8.33;;;;;;;-5.80;72.78;100740.77;1665079;83;21156;-62
2020/12/10 01:19:39;;;;;;;27.83;13.77;;;;;;;-5.81;72.84;100737.82;1667364;85;21244;-63
2020/12/10 01:22:07;;;;;;;19.40;13.13;;;;;;;-5.93;72.88;100734.86;1668617;85;21204;-65
2020/12/10 01:24:36;;;;;;;21.77;12.83;;;;;;;-6.01;73.19;100728.55;1674215;85;21635;-64
2020/12/10 01:27:04;;;;;;;21.30;11.70;;;;;;;-6.01;73.36;100732.48;1668270;85;21725;-65
2020/12/10 01:29:31;;;;;;;19.33;11.67;;;;;;;-6.05;73.46;100746.30;1669466;85;21190;-64
2020/12/10 01:31:59;;;;;;;16.97;10.83;;;;;;;-6.14;73.65;100746.17;1675208;84;21610;-64
2020/12/10 01:34:27;;;;;;;15.20;9.90;;;;;;;-6.11;73.83;100749.37;1698709;84;21422;-63
2020/12/10 01:36:54;;;;;;;19.37;14.27;;;;;;;-6.06;73.80;100751.64;1680926;85;21621;-64
2020/12/10 01:39:22;;;;;;;20.97;11.33;;;;;;;-6.10;73.92;100749.73;1669544;85;21078;-65
2020/12/10 01:41:49;;;;;;;22.10;13.27;;;;;;;-5.97;73.88;100745.22;1676580;84;21148;-63
2020/12/10 01:44:18;;;;;;;24.90;14.50;;;;;;;-5.82;73.87;100745.79;1656448;85;21407;-62
2020/12/10 01:46:46;;;;;;;30.97;20.07;;;;;;;-5.67;73.39;100749.00;1665980;83;21151;-65
2020/12/10 01:49:13;;;;;;;29.47;19.43;;;;;;;-5.67;72.99;100743.28;1662429;85;21602;-65
2020/12/10 01:51:41;;;;;;;33.37;22.27;;;;;;;-5.73;72.83;100738.52;1668534;85;21232;-66
2020/12/10 01:54:09;;;;;;;27.73;19.73;;;;;;;-5.86;72.93;100733.89;1684231;84;21633;-64
2020/12/10 01:56:36;;;;;;;18.67;12.30;;;;;;;-5.90;73.14;100733.80;1691839;84;21375;-64
2020/12/10 01:59:04;;;;;;;19.40;11.63;;;;;;;-5.89;73.08;100727.59;1696939;83;21192;-66
2020/12/10 02:01:33;;;;;;;28.80;15.33;;;;;;;-5.88;73.18;100730.57;1675787;85;21176;-66
2020/12/10 02:04:02;;;;;;;22.70;13.47;;;;;;;-5.90;72.98;100730.68;1674772;85;21155;-64
2020/12/10 02:06:30;;;;;;;19.50;13.20;;;;;;;-5.99;73.14;100729.25;1670038;85;21660;-63
2020/12/10 02:08:58;;;;;;;20.63;13.07;;;;;;;-5.94;73.33;100732.34;1675923;85;21417;-64
2020/12/10 02:11:26;;;;;;;22.73;14.30;;;;;;;-5.90;73.21;100725.44;1647942;85;21239;-64
2020/12/10 02:13:54;;;;;;;21.23;14.80;;;;;;;-5.94;73.10;100721.87;1632434;86;21192;-65
2020/12/10 02:16:22;;;;;;;25.40;12.90;;;;;;;-5.97;73.18;100718.20;1648131;86;21223;-64
2020/12/10 02:18:56;;;;;;;19.77;10.80;;;;;;;-5.99;73.24;100723.54;1607042;88;21172;-63
2020/12/10 02:21:24;;;;;;;15.63;10.07;;;;;;;-6.04;73.30;100719.13;1621372;87;22343;-63
2020/12/10 02:23:55;;;;;;;19.83;10.60;;;;;;;-6.06;73.51;100728.08;1647170;86;21234;-66
2020/12/10 02:26:23;;;;;;;19.80;12.10;;;;;;;-6.05;73.50;100729.75;1680597;84;21040;-64
2020/12/10 02:28:51;;;;;;;26.07;14.13;;;;;;;-6.11;73.64;100723.19;1673319;85;21635;-63
2020/12/10 02:31:23;;;;;;;25.50;15.30;;;;;;;-6.12;73.65;100722.83;1675961;83;21145;-66
2020/12/10 02:33:51;;;;;;;37.38;18.55;;;;;;;-6.12;73.79;100711.05;1672289;85;21625;-64
2020/12/10 02:36:19;;;;;;;36.20;16.23;;;;;;;-6.16;73.85;100705.70;1676496;84;21636;-68
2020/12/10 02:38:47;;;;;;;33.57;22.17;;;;;;;-6.15;73.96;100700.83;1677290;84;21163;-65
2020/12/10 02:41:14;;;;;;;24.00;13.80;;;;;;;-6.06;74.03;100692.73;1677829;84;21220;-64
2020/12/10 02:43:42;;;;;;;26.77;15.63;;;;;;;-5.98;73.74;100698.19;1684032;84;21057;-64
2020/12/10 02:46:09;;;;;;;25.07;14.13;;;;;;;-5.95;73.64;100700.12;1700361;83;21226;-64
2020/12/10 02:48:38;;;;;;;22.90;14.03;;;;;;;-6.01;73.42;100701.89;1699562;83;21128;-65
2020/12/10 02:51:06;;;;;;;21.80;11.00;;;;;;;-5.96;73.49;100702.84;1689275;84;21626;-64
2020/12/10 02:53:34;;;;;;;23.87;15.17;;;;;;;-6.00;73.45;100704.87;1674205;85;21220;-65
2020/12/10 02:56:07;;;;;;;33.23;15.07;;;;;;;-6.03;73.55;100702.48;1675114;85;21144;-66
2020/12/10 02:58:36;;;;;;;24.37;13.20;;;;;;;-5.98;73.58;100699.03;1674384;85;22279;-66
2020/12/10 03:01:05;;;;;;;33.43;19.90;;;;;;;-5.92;73.58;100689.39;1672753;85;21231;-64
2020/12/10 03:03:33;;;;;;;44.03;23.47;;;;;;;-5.92;73.37;100687.25;1698335;83;21243;-64
2020/12/10 03:06:04;;;;;;;31.60;19.60;;;;;;;-5.90;73.35;100687.97;1694782;83;21560;-68
2020/12/10 03:08:32;;;;;;;42.03;23.70;;;;;;;-5.90;73.21;100693.21;1694737;83;21128;-64
2020/12/10 03:11:00;;;;;;;26.43;15.57;;;;;;;-5.85;73.28;100693.66;1679087;84;22102;-65
2020/12/10 03:13:27;;;;;;;34.30;19.53;;;;;;;-5.80;72.94;100688.85;1674169;85;21657;-65
2020/12/10 03:15:56;;;;;;;30.13;18.73;;;;;;;-5.85;72.87;100687.11;1668139;85;21153;-65
2020/12/10 03:18:25;;;;;;;36.57;17.43;;;;;;;-5.91;72.88;100685.83;1669113;85;21593;-64
2020/12/10 03:20:53;;;;;;;45.77;21.77;;;;;;;-5.85;73.10;100681.36;1670677;85;21603;-65
2020/12/10 03:23:21;;;;;;;42.97;19.00;;;;;;;-5.86;72.94;100687.58;1673586;85;21383;-63
2020/12/10 03:25:49;;;;;;;41.83;19.80;;;;;;;-5.80;72.80;100693.63;1686736;84;21039;-64
2020/12/10 03:28:17;;;;;;;55.53;27.30;;;;;;;-5.81;72.77;100687.22;1680877;84;21159;-64
2020/12/10 03:30:45;;;;;;;40.33;22.67;;;;;;;-5.82;72.71;100687.69;1671831;83;22312;-65
2020/12/10 03:33:12;;;;;;;35.13;17.33;;;;;;;-5.77;72.58;100690.78;1671546;85;21203;-65
2020/12/10 03:35:41;;;;;;;26.53;15.00;;;;;;;-5.88;72.43;100693.44;1667219;85;21393;-66
2020/12/10 03:38:09;;;;;;;23.37;16.10;;;;;;;-5.94;72.68;100688.66;1665560;84;21800;-63
2020/12/10 03:40:36;;;;;;;28.23;17.00;;;;;;;-5.96;72.81;100682.73;1674418;85;21199;-64
2020/12/10 03:43:04;;;;;;;27.47;17.70;;;;;;;-5.92;72.80;100685.47;1691784;84;21247;-67
2020/12/10 03:45:33;;;;;;;29.70;16.07;;;;;;;-5.91;72.76;100684.52;1675339;84;21164;-64
2020/12/10 03:48:01;;;;;;;28.00;14.03;;;;;;;-5.85;72.74;100687.11;1674678;85;22138;-66
2020/12/10 03:50:29;;;;;;;28.50;17.43;;;;;;;-5.94;72.40;100682.12;1679615;85;21613;-64
2020/12/10 03:52:57;;;;;;;31.50;18.73;;;;;;;-5.99;72.60;100675.57;1680864;85;21187;-64
2020/12/10 03:55:25;;;;;;;28.87;18.17;;;;;;;-6.13;72.75;100662.25;1676340;85;21177;-67
2020/12/10 03:57:53;;;;;;;34.93;20.60;;;;;;;-6.13;72.92;100667.95;1674444;85;21607;-65
2020/12/10 04:00:21;;;;;;;30.13;18.83;;;;;;;-6.20;73.04;100668.93;1682257;83;21225;-63
2020/12/10 04:02:49;;;;;;;17.70;11.43;;;;;;;-6.28;73.23;100656.42;1684437;83;21250;-63
2020/12/10 04:05:20;;;;;;;34.20;19.20;;;;;;;-6.24;73.45;100658.34;1675609;85;21152;-65
2020/12/10 04:07:48;;;;;;;31.53;19.67;;;;;;;-6.28;73.30;100660.81;1706674;83;21776;-64
2020/12/10 04:10:16;;;;;;;28.67;14.83;;;;;;;-6.37;73.39;100645.36;1679855;84;21053;-66
2020/12/10 04:12:43;;;;;;;27.37;18.73;;;;;;;-6.47;73.81;100640.97;1673116;85;21474;-65
2020/12/10 04:15:14;;;;;;;23.60;13.93;;;;;;;-6.57;74.11;100642.62;1667011;83;21121;-64
2020/12/10 04:17:41;;;;;;;20.83;15.23;;;;;;;-6.58;74.38;100644.88;1696521;84;21124;-65
2020/12/10 04:20:10;;;;;;;23.60;14.60;;;;;;;-6.61;74.37;100628.92;1699033;83;22002;-63
2020/12/10 04:22:37;;;;;;;18.77;13.97;;;;;;;-6.57;74.52;100633.00;1678978;85;21612;-63
2020/12/10 04:25:06;;;;;;;23.67;13.33;;;;;;;-6.45;74.54;100632.04;1674411;85;21234;-64
2020/12/10 04:27:33;;;;;;;28.20;18.40;;;;;;;-6.44;74.21;100632.88;1683413;84;21224;-64
2020/12/10 04:30:01;;;;;;;25.10;15.13;;;;;;;-6.49;74.25;100631.92;1692865;84;21156;-62
2020/12/10 04:32:28;;;;;;;17.07;10.43;;;;;;;-6.38;74.44;100632.41;1685491;83;21605;-65
2020/12/10 04:34:56;;;;;;;20.50;11.03;;;;;;;-6.36;74.04;100634.41;1678804;85;21641;-64
2020/12/10 04:37:24;;;;;;;22.80;12.33;;;;;;;-6.46;74.01;100632.15;1665076;85;21228;-64
2020/12/10 04:39:52;;;;;;;22.43;10.57;;;;;;;-6.54;74.13;100621.45;1673812;85;21041;-63
2020/12/10 04:42:20;;;;;;;20.70;12.13;;;;;;;-6.61;74.20;100627.61;1671994;84;21598;-66
2020/12/10 04:44:48;;;;;;;15.63;9.50;;;;;;;-6.67;74.49;100628.94;1662554;85;21712;-64
2020/12/10 04:47:16;;;;;;;25.03;13.67;;;;;;;-6.67;74.56;100627.63;1690693;83;21163;-68
2020/12/10 04:49:44;;;;;;;16.57;12.73;;;;;;;-6.70;74.63;100633.55;1657028;84;21225;-63
2020/12/10 04:52:12;;;;;;;33.63;22.17;;;;;;;-6.69;74.77;100629.52;1673535;84;21653;-65
2020/12/10 04:54:41;;;;;;;28.90;21.83;;;;;;;-6.66;74.75;100627.13;1702724;83;21598;-65
2020/12/10 04:59:47;;;;;;;31.77;18.73;;;;;;;-6.66;74.92;100634.50;1888165;76;23036;-65
2020/12/10 05:02:14;;;;;;;37.17;21.17;;;;;;;-6.66;74.93;100632.36;1851570;77;21567;-62
2020/12/10 05:04:42;;;;;;;39.97;20.70;;;;;;;-6.65;74.77;100627.02;1856138;77;21294;-62
2020/12/10 05:07:09;;;;;;;51.10;25.90;;;;;;;-6.67;74.75;100631.56;1854512;77;20987;-63
2020/12/10 05:09:38;;;;;;;33.70;19.60;;;;;;;-6.74;74.83;100626.42;1815099;77;20999;-64
2020/12/10 05:12:18;;;;;;;33.87;19.63;;;;;;;-6.75;75.00;100629.98;1771305;80;21606;-62
2020/12/10 05:14:46;;;;;;;36.93;16.47;;;;;;;-6.65;75.07;100622.27;1788593;80;21042;-63
2020/12/10 05:17:15;;;;;;;35.53;16.70;;;;;;;-6.53;74.90;100621.34;1817173;79;21185;-65
2020/12/10 05:19:44;;;;;;;44.17;20.87;;;;;;;-6.49;74.59;100629.78;1817036;79;21548;-63
2020/12/10 05:22:13;;;;;;;32.57;18.43;;;;;;;-6.42;74.67;100633.09;1788284;79;21058;-63
2020/12/10 05:24:40;;;;;;;45.23;24.17;;;;;;;-6.33;74.39;100628.45;1817035;79;21165;-64
2020/12/10 05:27:21;;;;;;;41.07;23.40;;;;;;;-6.31;74.23;100630.50;1817198;79;21527;-64
2020/12/10 05:29:51;;;;;;;31.83;17.77;;;;;;;-6.23;74.17;100635.12;1754433;81;21373;-66
2020/12/10 05:32:37;;;;;;;31.43;17.00;;;;;;;-6.37;73.83;100637.50;1823238;78;21137;-67
2020/12/10 05:35:21;;;;;;;34.33;18.50;;;;;;;-6.49;74.30;100631.92;1827115;78;21141;-64
2020/12/10 05:37:54;;;;;;;28.90;11.70;;;;;;;-6.57;74.55;100628.23;1836163;78;21162;-67
2020/12/10 05:40:21;;;;;;;24.67;14.00;;;;;;;-6.59;74.98;100636.19;1838078;78;21183;-63
2020/12/10 05:42:51;;;;;;;39.87;19.53;;;;;;;-6.63;75.20;100631.67;1823400;77;21439;-64
2020/12/10 05:45:21;;;;;;;31.20;19.07;;;;;;;-6.66;75.55;100633.67;1820648;77;21599;-63
2020/12/10 05:47:58;;;;;;;33.90;20.57;;;;;;;-6.64;75.73;100635.23;1832848;77;24881;-64
2020/12/10 05:50:30;;;;;;;37.63;17.27;;;;;;;-6.55;75.74;100642.85;1854603;77;21021;-63
2020/12/10 05:53:11;;;;;;;31.42;15.65;;;;;;;-6.48;75.90;100637.99;1854675;77;21550;-64
2020/12/10 05:55:48;;;;;;;27.13;16.23;;;;;;;-6.43;75.91;100648.47;1854057;77;21248;-64
2020/12/10 05:58:19;;;;;;;25.77;13.67;;;;;;;-6.37;76.08;100657.60;1854105;77;21050;-61
2020/12/10 06:00:46;;;;;;;25.20;13.87;;;;;;;-6.40;76.52;100663.09;1854383;77;21014;-65
2020/12/10 06:03:14;;;;;;;33.80;16.30;;;;;;;-6.37;76.61;100654.98;1854353;77;21102;-66
2020/12/10 06:05:43;;;;;;;27.07;14.23;;;;;;;-6.33;76.68;100657.75;1800660;77;21161;-63
2020/12/10 06:08:11;;;;;;;17.77;9.43;;;;;;;-6.24;76.61;100660.49;1833337;77;21544;-64
2020/12/10 06:10:42;;;;;;;32.07;18.30;;;;;;;-6.18;76.57;100659.16;1820240;78;21006;-66
2020/12/10 06:13:11;;;;;;;26.33;13.90;;;;;;;-6.18;76.55;100657.84;1820224;78;21093;-64
2020/12/10 06:15:38;;;;;;;35.10;17.87;;;;;;;-6.13;76.59;100662.25;1826035;77;21770;-64
2020/12/10 06:18:13;;;;;;;31.07;13.50;;;;;;;-6.06;76.50;100666.07;1813940;79;21153;-70
2020/12/10 06:20:43;;;;;;;36.90;16.40;;;;;;;-6.04;76.53;100659.41;1817584;77;22117;-63
2020/12/10 06:23:31;;;;;;;21.63;14.10;;;;;;;-6.00;76.40;100653.81;1820606;77;20983;-64
2020/12/10 06:26:27;;;;;;;31.87;18.20;;;;;;;-6.00;76.41;100643.34;1820278;78;21128;-62
2020/12/10 06:29:23;;;;;;;31.00;16.17;;;;;;;-5.96;76.44;100652.62;1820253;78;21210;-65
2020/12/10 06:32:13;;;;;;;28.37;15.10;;;;;;;-5.93;76.44;100645.81;1820360;78;21539;-65
2020/12/10 06:34:55;;;;;;;30.53;18.43;;;;;;;-5.89;76.52;100640.69;1822189;78;21368;-64
2020/12/10 06:37:27;;;;;;;41.33;20.30;;;;;;;-5.86;76.43;100636.50;1821313;78;21023;-67
2020/12/10 06:40:04;;;;;;;37.15;19.85;;;;;;;-5.82;76.35;100639.23;1847918;77;20999;-64
2020/12/10 06:42:47;;;;;;;38.40;21.57;;;;;;;-5.83;76.28;100635.41;1833471;77;21157;-66
2020/12/10 06:45:37;;;;;;;31.53;15.17;;;;;;;-5.80;76.32;100635.16;1851362;77;21619;-62
2020/12/10 06:48:08;;;;;;;30.57;16.93;;;;;;;-5.83;76.29;100627.08;1839850;77;21439;-62
2020/12/10 06:50:39;;;;;;;36.20;18.37;;;;;;;-5.79;76.31;100623.73;1791628;79;21054;-63
2020/12/10 06:53:20;;;;;;;33.43;19.30;;;;;;;-5.75;76.32;100629.91;1837238;78;21157;-63
2020/12/10 06:56:04;;;;;;;25.03;12.57;;;;;;;-5.68;76.25;100630.27;1801680;79;21134;-64
2020/12/10 06:58:41;;;;;;;29.13;17.37;;;;;;;-5.63;76.23;100632.52;1855003;77;21531;-65
2020/12/10 07:01:37;;;;;;;34.87;17.70;;;;;;;-5.61;76.21;100627.49;1859819;77;21200;-63
2020/12/10 07:06:47;;;;;;;29.70;16.37;;;;;;;-5.63;76.46;100618.10;1785446;80;21165;-64
2020/12/10 07:09:14;;;;;;;26.90;16.87;;;;;;;-5.54;76.62;100618.20;1785553;80;21149;-62
2020/12/10 07:11:44;;;;;;;19.03;12.23;;;;;;;-5.46;76.53;100612.31;1785425;80;21074;-62
2020/12/10 07:14:27;;;;;;;30.97;16.00;;;;;;;-5.46;76.73;100605.29;1785536;80;21740;-65
2020/12/10 07:16:55;;;;;;;28.67;15.18;;;;;;;-5.38;76.71;100608.61;1785518;80;29064;-64
2020/12/10 07:19:24;;;;;;;33.87;16.00;;;;;;;-5.33;76.62;100606.45;1785903;80;21062;-65
2020/12/10 07:21:52;;;;;;;27.17;14.40;;;;;;;-5.36;76.54;100604.89;1782889;80;21070;-63
2020/12/10 07:24:19;;;;;;;38.47;14.90;;;;;;;-5.38;76.88;100610.77;1808854;79;21133;-65
2020/12/10 07:26:47;;;;;;;30.37;13.63;;;;;;;-5.30;76.97;100620.13;1787175;79;22387;-63
2020/12/10 07:29:15;;;;;;;26.10;14.20;;;;;;;-5.27;76.89;100615.94;1793961;79;21145;-63
2020/12/10 07:31:43;;;;;;;26.00;15.63;;;;;;;-5.25;77.07;100612.36;1761842;81;21546;-66
2020/12/10 07:34:11;;;;;;;27.77;15.40;;;;;;;-5.27;77.31;100611.67;1761873;81;21581;-63
2020/12/10 07:36:46;;;;;;;25.27;13.67;;;;;;;-5.24;77.41;100607.00;1761844;81;21216;-63
2020/12/10 07:39:16;;;;;;;22.33;13.43;;;;;;;-5.20;77.33;100610.19;1767170;79;21550;-62
2020/12/10 07:41:44;;;;;;;27.90;16.20;;;;;;;-5.17;77.50;100616.48;1768273;79;21248;-63
2020/12/10 07:44:12;;;;;;;25.23;12.77;;;;;;;-5.15;77.50;100608.03;1768403;81;21602;-63
2020/12/10 07:46:40;;;;;;;20.23;13.70;;;;;;;-5.08;77.47;100628.83;1768301;81;21188;-64
2020/12/10 07:49:07;;;;;;;29.60;14.80;;;;;;;-5.03;77.35;100613.55;1754499;80;21198;-65
2020/12/10 07:51:35;;;;;;;25.50;16.50;;;;;;;-4.96;77.31;100624.73;1787057;80;21582;-65
2020/12/10 07:54:03;;;;;;;24.70;14.60;;;;;;;-4.88;77.15;100616.21;1787078;80;21137;-63
2020/12/10 07:56:31;;;;;;;40.13;20.40;;;;;;;-4.83;76.94;100612.72;1787105;80;21594;-63
2020/12/10 07:59:13;;;;;;;27.10;16.33;;;;;;;-4.79;76.77;100606.25;1759632;79;21078;-62
2020/12/10 08:01:56;;;;;;;31.47;16.53;;;;;;;-4.72;76.55;100614.45;1781319;80;21567;-64
2020/12/10 08:04:24;;;;;;;24.57;16.47;;;;;;;-4.65;76.44;100612.48;1820431;78;21163;-63
2020/12/10 08:06:52;;;;;;;28.47;15.87;;;;;;;-4.60;76.17;100604.22;1820947;78;21159;-66
2020/12/10 08:09:20;;;;;;;28.20;13.93;;;;;;;-4.64;76.16;100598.41;1788712;78;21019;-63
2020/12/10 08:11:55;;;;;;;30.47;14.97;;;;;;;-4.58;76.26;100601.83;1818563;78;21113;-64
2020/12/10 08:14:27;;;;;;;25.47;13.90;;;;;;;-4.52;76.04;100596.06;1818554;78;21554;-64
2020/12/10 08:16:55;;;;;;;23.45;15.38;;;;;;;-4.51;76.13;100599.02;1818691;78;21204;-64
2020/12/10 08:19:30;;;;;;;31.53;15.17;;;;;;;-4.51;76.15;100589.02;1819358;77;21101;-65
2020/12/10 08:21:57;;;;;;;29.53;16.60;;;;;;;-4.57;76.05;100580.35;1820225;78;21477;-62
2020/12/10 08:24:42;;;;;;;23.10;13.43;;;;;;;-4.57;76.20;100574.62;1820177;78;21007;-62
2020/12/10 08:27:11;;;;;;;42.20;25.43;;;;;;;-4.61;76.70;100578.95;1820390;78;21639;-63
2020/12/10 08:29:39;;;;;;;38.07;20.73;;;;;;;-4.56;76.75;100559.71;1855198;77;21369;-63
2020/12/10 08:32:12;;;;;;;34.33;20.27;;;;;;;-4.45;76.70;100556.97;1856846;77;21209;-67
2020/12/10 08:34:40;;;;;;;28.75;15.10;;;;;;;-4.41;76.65;100546.55;1837916;77;21599;-64
2020/12/10 08:37:10;;;;;;;34.10;18.07;;;;;;;-4.40;76.86;100549.05;1821519;77;21001;-67
2020/12/10 08:39:39;;;;;;;27.57;15.37;;;;;;;-4.37;77.09;100555.02;1820488;77;21101;-65
2020/12/10 08:42:07;;;;;;;28.27;14.90;;;;;;;-4.29;77.08;100560.42;1820264;78;21327;-64
2020/12/10 08:44:47;;;;;;;41.33;19.27;;;;;;;-4.31;77.01;100553.98;1820089;78;21571;-64
2020/12/10 08:47:27;;;;;;;25.27;14.97;;;;;;;-4.28;77.05;100539.30;1814843;77;21151;-64
2020/12/10 08:53:08;;;;;;;23.67;14.27;;;;;;;-4.05;77.12;100532.02;1884150;76;26712;-68
2020/12/10 08:55:44;;;;;;;26.30;16.40;;;;;;;-4.01;76.96;100536.86;1819819;78;21159;-63
2020/12/10 08:58:29;;;;;;;28.87;16.80;;;;;;;-3.97;76.88;100533.47;1821097;78;21347;-63
2020/12/10 09:00:59;;;;;;;37.37;22.03;;;;;;;-3.93;76.85;100537.98;1821768;77;21169;-65
2020/12/10 09:03:28;;;;;;;33.77;20.70;;;;;;;-3.94;77.05;100535.84;1821063;78;21595;-62
2020/12/10 09:05:56;;;;;;;41.13;21.13;;;;;;;-3.93;77.13;100535.36;1820840;78;20983;-68
2020/12/10 09:08:23;;;;;;;40.03;24.40;;;;;;;-3.87;77.21;100532.16;1820928;78;21031;-63
2020/12/10 09:10:51;;;;;;;42.83;26.30;;;;;;;-3.86;77.09;100532.03;1820805;78;21377;-63
2020/12/10 09:13:23;;;;;;;37.00;19.87;;;;;;;-3.76;77.25;100523.69;1820166;77;20992;-65
2020/12/10 09:15:49;;;;;;;37.90;19.90;;;;;;;-3.69;76.90;100527.41;1849628;77;21019;-63
2020/12/10 09:18:16;;;;;;;40.70;20.67;;;;;;;-3.62;76.98;100518.01;1828346;77;21106;-66
2020/12/10 09:20:44;;;;;;;39.50;22.03;;;;;;;-3.55;76.70;100518.30;1820879;78;21125;-65
2020/12/10 09:23:12;;;;;;;31.43;15.83;;;;;;;-3.48;76.64;100511.98;1817219;78;21200;-63
2020/12/10 09:25:40;;;;;;;20.10;14.60;;;;;;;-3.49;76.24;100515.09;1834455;77;21169;-65
2020/12/10 09:28:09;;;;;;;29.27;18.60;;;;;;;-3.47;76.20;100518.42;1837842;78;21086;-64
2020/12/10 09:30:38;;;;;;;33.77;18.53;;;;;;;-3.53;76.32;100513.71;1837895;78;21771;-79
2020/12/10 09:33:07;;;;;;;18.63;11.57;;;;;;;-3.55;76.54;100513.84;1837558;77;21150;-64
2020/12/10 09:35:35;;;;;;;30.37;17.17;;;;;;;-3.55;76.78;100509.09;1854128;77;21317;-75
2020/12/10 09:38:04;;;;;;;40.30;21.47;;;;;;;-3.54;76.90;100504.16;1823616;78;21049;-66
2020/12/10 09:40:33;;;;;;;36.13;19.90;;;;;;;-3.54;77.04;100501.05;1821622;78;20979;-77
2020/12/10 09:43:00;;;;;;;28.83;17.03;;;;;;;-3.52;77.12;100496.49;1816436;78;21003;-63
2020/12/10 09:45:28;;;;;;;34.53;20.33;;;;;;;-3.43;77.13;100497.45;1821487;77;21134;-62
2020/12/10 09:47:56;;;;;;;31.57;19.23;;;;;;;-3.37;77.06;100493.43;1821105;77;21418;-64
2020/12/10 09:50:26;;;;;;;41.40;21.37;;;;;;;-3.38;76.99;100495.23;1817637;77;21126;-64
2020/12/10 09:53:08;;;;;;;43.17;19.90;;;;;;;-3.36;77.21;100483.27;1809302;79;21115;-64
2020/12/10 09:58:06;;;;;;;29.60;18.40;;;;;;;-3.29;77.42;100494.86;1821038;78;21653;-63
2020/12/10 10:00:34;;;;;;;35.60;21.43;;;;;;;-3.26;77.37;100507.23;1821810;77;21195;-66
2020/12/10 10:03:06;;;;;;;43.37;24.63;;;;;;;-3.27;77.45;100513.49;1849195;77;21166;-64
2020/12/10 10:05:36;;;;;;;41.10;24.70;;;;;;;-3.27;77.61;100521.86;1831672;77;22178;-64
2020/12/10 10:08:03;;;;;;;46.27;25.00;;;;;;;-3.21;77.78;100526.53;1827505;77;21078;-64
2020/12/10 10:10:31;;;;;;;41.70;22.27;;;;;;;-3.19;77.76;100529.88;1792919;78;21105;-67
2020/12/10 10:13:00;;;;;;;50.17;23.17;;;;;;;-3.18;77.66;100532.37;1819533;78;21132;-64
2020/12/10 10:15:27;;;;;;;37.00;21.00;;;;;;;-3.18;77.78;100523.64;1789389;78;21272;-63
2020/12/10 10:17:57;;;;;;;51.33;25.53;;;;;;;-3.15;77.86;100509.71;1823401;78;21148;-64
2020/12/10 10:20:25;;;;;;;34.77;19.43;;;;;;;-3.05;77.86;100510.17;1811338;78;21139;-63
2020/12/10 10:22:53;;;;;;;41.90;24.07;;;;;;;-2.98;77.65;100506.02;1795605;78;21175;-66
2020/12/10 10:25:20;;;;;;;38.93;20.83;;;;;;;-3.00;77.63;100500.89;1770605;81;21193;-63
2020/12/10 10:27:49;;;;;;;41.03;21.93;;;;;;;-3.02;77.72;100498.87;1769386;81;21903;-64
2020/12/10 10:30:17;;;;;;;45.87;22.93;;;;;;;-2.95;77.79;100501.77;1769389;81;20980;-64
2020/12/10 10:32:45;;;;;;;36.57;22.10;;;;;;;-2.94;77.70;100497.69;1772874;78;21036;-64
2020/12/10 10:35:13;;;;;;;52.83;25.60;;;;;;;-2.95;77.66;100505.23;1769382;80;21581;-69
2020/12/10 10:37:42;;;;;;;34.80;21.77;;;;;;;-2.93;77.71;100502.47;1769213;81;22372;-62
2020/12/10 10:40:10;;;;;;;42.10;24.57;;;;;;;-3.01;77.81;100500.54;1786673;78;21564;-69
2020/12/10 10:42:38;;;;;;;48.73;24.00;;;;;;;-3.01;77.99;100497.91;1811132;78;20962;-65
2020/12/10 10:45:07;;;;;;;40.10;22.97;;;;;;;-3.03;78.16;100488.52;1791011;80;21238;-63
2020/12/10 10:47:35;;;;;;;31.87;17.60;;;;;;;-3.00;78.26;100490.36;1808317;78;21089;-64
2020/12/10 10:50:05;;;;;;;36.80;21.47;;;;;;;-3.00;78.35;100485.58;1823391;78;21072;-64
2020/12/10 10:52:33;;;;;;;38.70;20.37;;;;;;;-3.07;78.54;100487.46;1824762;78;21148;-65
2020/12/10 10:55:00;;;;;;;38.80;21.93;;;;;;;-3.04;78.75;100481.58;1823840;77;21165;-64
2020/12/10 10:57:28;;;;;;;37.13;21.73;;;;;;;-3.07;78.86;100479.56;1811293;78;21144;-63
2020/12/10 10:59:55;;;;;;;43.40;23.93;;;;;;;-3.08;79.16;100478.42;1811058;78;21121;-64
2020/12/10 11:02:25;;;;;;;38.57;21.73;;;;;;;-3.12;79.46;100480.48;1825424;78;21215;-66
2020/12/10 11:04:53;;;;;;;51.23;27.47;;;;;;;-3.07;79.56;100480.88;1817570;78;21124;-64
2020/12/10 11:07:21;;;;;;;37.77;22.47;;;;;;;-3.07;79.76;100472.67;1811414;78;21025;-62
2020/12/10 11:09:49;;;;;;;48.50;21.97;;;;;;;-3.12;80.15;100473.10;1795329;78;21112;-65
2020/12/10 11:12:18;;;;;;;51.53;24.90;;;;;;;-3.16;80.46;100476.96;1801562;78;21105;-64
2020/12/10 11:14:46;;;;;;;53.57;25.67;;;;;;;-3.07;80.59;100494.55;1826133;78;21970;-65
2020/12/10 11:17:14;;;;;;;42.10;25.37;;;;;;;-3.09;80.73;100480.22;1822730;78;20978;-66
2020/12/10 11:19:43;;;;;;;45.20;25.03;;;;;;;-3.09;80.88;100484.16;1819258;78;21168;-64
2020/12/10 11:22:11;;;;;;;60.67;30.40;;;;;;;-3.07;81.01;100474.82;1808079;78;21124;-63
2020/12/10 11:24:38;;;;;;;47.50;25.40;;;;;;;-3.05;81.15;100470.70;1817489;78;21116;-62
2020/12/10 11:27:06;;;;;;;55.13;26.40;;;;;;;-3.07;81.33;100476.62;1808689;78;21200;-63
2020/12/10 11:29:34;;;;;;;45.47;24.10;;;;;;;-3.12;81.47;100472.59;1796356;78;21067;-62
2020/12/10 11:32:01;;;;;;;41.97;22.50;;;;;;;-3.15;81.75;100470.25;1803349;78;21609;-66